createdAt,value
2019-04-07T00:00:54.198Z,9.40
2019-04-07T00:02:01.078Z,9.40
2019-04-07T00:03:08.041Z,9.40
2019-04-07T00:04:15.834Z,9.40
2019-04-07T00:05:22.977Z,9.40
2019-04-07T00:06:30.951Z,9.40
2019-04-07T00:07:37.883Z,9.40
2019-04-07T00:08:44.503Z,9.40
2019-04-07T00:09:51.242Z,9.40
2019-04-07T00:10:57.895Z,9.40
2019-04-07T00:12:06.076Z,9.40
2019-04-07T00:13:13.615Z,9.40
2019-04-07T00:14:21.072Z,9.40
2019-04-07T00:15:27.769Z,9.30
2019-04-07T00:16:34.141Z,9.30
2019-04-07T00:17:40.627Z,9.20
2019-04-07T00:18:47.122Z,9.20
2019-04-07T00:19:53.376Z,9.20
2019-04-07T00:21:00.190Z,9.20
2019-04-07T00:22:06.617Z,9.20
2019-04-07T00:23:13.125Z,9.20
2019-04-07T00:24:19.565Z,9.30
2019-04-07T00:25:25.978Z,9.20
2019-04-07T00:26:33.560Z,9.20
2019-04-07T00:27:40.434Z,9.20
2019-04-07T00:28:48.165Z,9.20
2019-04-07T00:29:55.507Z,9.20
2019-04-07T00:31:02.468Z,9.20
2019-04-07T00:32:08.946Z,9.20
2019-04-07T00:33:15.316Z,9.10
2019-04-07T00:34:22.202Z,9.10
2019-04-07T00:35:32.256Z,9.00
2019-04-07T00:36:36.497Z,9.00
2019-04-07T00:37:42.808Z,9.00
2019-04-07T00:38:50.424Z,8.80
2019-04-07T00:39:56.693Z,8.80
2019-04-07T00:41:03.301Z,8.90
2019-04-07T00:42:09.721Z,8.90
2019-04-07T00:43:16.276Z,8.90
2019-04-07T00:44:22.635Z,8.80
2019-04-07T00:45:29.472Z,8.70
2019-04-07T00:46:36.463Z,8.80
2019-04-07T00:47:44.013Z,8.70
2019-04-07T00:48:50.233Z,8.70
2019-04-07T00:49:56.603Z,8.60
2019-04-07T00:51:03.516Z,8.60
2019-04-07T00:52:10.306Z,8.70
2019-04-07T00:53:16.665Z,8.60
2019-04-07T00:54:22.963Z,8.60
2019-04-07T00:55:29.637Z,8.60
2019-04-07T00:56:36.302Z,8.60
2019-04-07T00:57:43.076Z,8.50
2019-04-07T00:58:51.031Z,8.50
2019-04-07T00:59:57.429Z,8.50
2019-04-07T01:01:04.262Z,8.50
2019-04-07T01:02:10.763Z,8.60
2019-04-07T01:03:17.413Z,8.60
2019-04-07T01:04:24.278Z,8.50
2019-04-07T01:05:37.899Z,8.60
2019-04-07T01:06:38.679Z,8.60
2019-04-07T01:07:45.212Z,8.60
2019-04-07T01:08:52.756Z,8.60
2019-04-07T01:09:59.583Z,8.60
2019-04-07T01:11:06.329Z,8.60
2019-04-07T01:12:12.855Z,8.60
2019-04-07T01:13:19.849Z,8.50
2019-04-07T01:14:26.337Z,8.50
2019-04-07T01:15:33.065Z,8.50
2019-04-07T01:16:39.393Z,8.60
2019-04-07T01:17:45.784Z,8.50
2019-04-07T01:18:52.113Z,8.60
2019-04-07T01:19:58.671Z,8.50
2019-04-07T01:21:05.376Z,8.50
2019-04-07T01:22:11.872Z,8.50
2019-04-07T01:23:18.273Z,8.50
2019-04-07T01:24:24.354Z,8.40
2019-04-07T01:25:31.397Z,8.30
2019-04-07T01:26:39.353Z,8.30
2019-04-07T01:27:46.567Z,8.30
2019-04-07T01:28:55.166Z,8.30
2019-04-07T01:30:02.061Z,8.20
2019-04-07T01:31:09.741Z,8.30
2019-04-07T01:32:16.116Z,8.30
2019-04-07T01:33:22.474Z,8.30
2019-04-07T01:34:28.912Z,8.30
2019-04-07T01:35:45.406Z,8.30
2019-04-07T01:36:44.527Z,8.30
2019-04-07T01:37:50.949Z,8.30
2019-04-07T01:38:57.551Z,8.30
2019-04-07T01:40:04.528Z,8.20
2019-04-07T01:41:23.976Z,8.20
2019-04-07T01:42:45.793Z,8.20
2019-04-07T01:44:10.154Z,8.20
2019-04-07T01:45:43.444Z,8.10
2019-04-07T01:47:07.710Z,8.00
2019-04-07T01:48:42.357Z,7.90
2019-04-07T01:49:58.844Z,7.70
2019-04-07T01:51:28.242Z,7.60
2019-04-07T01:52:57.059Z,7.70
2019-04-07T01:54:21.739Z,7.80
2019-04-07T01:55:50.187Z,7.90
2019-04-07T01:57:14.640Z,7.90
2019-04-07T01:58:53.575Z,7.90
2019-04-07T02:00:30.670Z,7.90
2019-04-07T02:01:51.676Z,7.90
2019-04-07T02:03:18.680Z,7.90
2019-04-07T02:04:43.543Z,7.80
2019-04-07T02:06:18.006Z,7.80
2019-04-07T02:07:55.684Z,7.80
2019-04-07T02:09:19.828Z,7.70
2019-04-07T02:10:48.131Z,7.70
2019-04-07T02:12:22.452Z,7.70
2019-04-07T02:13:48.242Z,7.70
2019-04-07T02:15:22.869Z,7.70
2019-04-07T02:16:46.878Z,7.80
2019-04-07T02:18:19.957Z,7.70
2019-04-07T02:19:47.158Z,7.70
2019-04-07T02:21:01.004Z,7.70
2019-04-07T02:22:29.158Z,7.70
2019-04-07T02:23:54.832Z,7.70
2019-04-07T02:25:17.512Z,7.70
2019-04-07T02:26:52.334Z,7.70
2019-04-07T02:28:11.080Z,7.70
2019-04-07T02:29:52.069Z,7.40
2019-04-07T02:31:25.076Z,7.30
2019-04-07T02:32:42.156Z,7.20
2019-04-07T02:34:13.671Z,7.20
2019-04-07T02:35:31.932Z,7.10
2019-04-07T02:36:48.509Z,7.10
2019-04-07T02:38:16.122Z,7.20
2019-04-07T02:40:00.130Z,7.30
2019-04-07T02:41:34.830Z,7.30
2019-04-07T02:42:59.066Z,7.30
2019-04-07T02:44:27.483Z,7.30
2019-04-07T02:45:56.450Z,7.20
2019-04-07T02:47:11.879Z,7.20
2019-04-07T02:48:42.625Z,7.00
2019-04-07T02:50:11.134Z,6.90
2019-04-07T02:51:27.415Z,6.90
2019-04-07T02:52:59.569Z,6.90
2019-04-07T02:54:40.527Z,6.80
2019-04-07T02:56:11.261Z,6.90
2019-04-07T02:57:31.918Z,6.80
2019-04-07T02:59:06.472Z,6.90
2019-04-07T03:00:36.328Z,6.90
2019-04-07T03:02:02.810Z,6.90
2019-04-07T03:03:18.847Z,6.80
2019-04-07T03:04:41.623Z,6.90
2019-04-07T03:06:07.450Z,6.90
2019-04-07T03:07:33.162Z,6.90
2019-04-07T03:08:59.439Z,6.90
2019-04-07T03:10:26.054Z,7.00
2019-04-07T03:11:54.803Z,7.10
2019-04-07T03:13:26.543Z,7.00
2019-04-07T03:15:03.916Z,6.90
2019-04-07T03:16:29.355Z,6.80
2019-04-07T03:17:53.888Z,6.80
2019-04-07T03:19:13.161Z,6.80
2019-04-07T03:20:41.413Z,6.70
2019-04-07T03:22:12.562Z,6.70
2019-04-07T03:23:33.567Z,6.80
2019-04-07T03:24:55.139Z,6.90
2019-04-07T03:26:16.282Z,6.80
2019-04-07T03:27:42.272Z,6.70
2019-04-07T03:29:11.999Z,6.70
2019-04-07T03:30:33.097Z,6.70
2019-04-07T03:31:59.742Z,6.80
2019-04-07T03:33:21.159Z,6.70
2019-04-07T03:34:38.706Z,6.80
2019-04-07T03:36:23.312Z,6.70
2019-04-07T03:37:47.516Z,6.70
2019-04-07T03:39:12.689Z,6.70
2019-04-07T03:40:28.770Z,6.70
2019-04-07T03:41:57.044Z,6.80
2019-04-07T03:43:22.432Z,6.80
2019-04-07T03:44:35.290Z,6.80
2019-04-07T03:46:09.550Z,6.80
2019-04-07T03:47:26.352Z,6.80
2019-04-07T03:48:40.074Z,6.80
2019-04-07T03:50:05.591Z,6.80
2019-04-07T03:51:20.269Z,6.70
2019-04-07T03:52:44.855Z,6.70
2019-04-07T03:54:12.241Z,6.70
2019-04-07T03:55:36.556Z,6.60
2019-04-07T03:57:17.297Z,6.50
2019-04-07T03:58:57.991Z,6.50
2019-04-07T04:00:23.480Z,6.60
2019-04-07T04:01:47.880Z,6.40
2019-04-07T04:03:12.878Z,6.50
2019-04-07T04:04:43.560Z,6.40
2019-04-07T04:06:08.989Z,6.50
2019-04-07T04:07:31.298Z,6.40
2019-04-07T04:08:41.779Z,6.40
2019-04-07T04:10:07.361Z,6.40
2019-04-07T04:11:36.124Z,6.40
2019-04-07T04:12:58.780Z,6.40
2019-04-07T04:14:19.884Z,6.40
2019-04-07T04:15:45.180Z,6.40
2019-04-07T04:16:54.332Z,6.40
2019-04-07T04:18:01.188Z,6.40
2019-04-07T04:19:08.209Z,6.40
2019-04-07T04:20:14.853Z,6.40
2019-04-07T04:21:22.069Z,6.40
2019-04-07T04:22:29.266Z,6.40
2019-04-07T04:23:36.092Z,6.40
2019-04-07T04:24:43.586Z,6.40
2019-04-07T04:25:50.374Z,6.30
2019-04-07T04:26:57.105Z,6.30
2019-04-07T04:28:04.955Z,6.40
2019-04-07T04:29:12.066Z,6.40
2019-04-07T04:30:18.981Z,6.40
2019-04-07T04:31:25.627Z,6.40
2019-04-07T04:32:32.700Z,6.40
2019-04-07T04:33:39.580Z,6.40
2019-04-07T04:34:46.668Z,6.40
2019-04-07T04:35:53.827Z,6.50
2019-04-07T04:37:00.317Z,6.40
2019-04-07T04:38:08.025Z,6.40
2019-04-07T04:39:18.599Z,6.40
2019-04-07T04:40:24.248Z,6.40
2019-04-07T04:41:30.562Z,6.40
2019-04-07T04:42:37.602Z,6.50
2019-04-07T04:43:45.096Z,6.50
2019-04-07T04:44:52.311Z,6.50
2019-04-07T04:45:58.774Z,6.50
2019-04-07T04:47:05.116Z,6.40
2019-04-07T04:48:12.030Z,6.50
2019-04-07T04:49:19.712Z,6.50
2019-04-07T04:50:26.466Z,6.50
2019-04-07T04:51:37.024Z,6.60
2019-04-07T04:52:41.051Z,6.70
2019-04-07T04:53:47.633Z,6.60
2019-04-07T04:54:54.900Z,6.60
2019-04-07T04:56:01.445Z,6.60
2019-04-07T04:57:09.217Z,6.60
2019-04-07T04:58:15.866Z,6.70
2019-04-07T04:59:22.323Z,6.70
2019-04-07T05:00:29.301Z,6.70
2019-04-07T05:01:36.225Z,6.80
2019-04-07T05:02:43.513Z,6.80
2019-04-07T05:03:50.691Z,6.80
2019-04-07T05:04:57.806Z,6.80
2019-04-07T05:06:04.039Z,6.90
2019-04-07T05:07:11.209Z,6.90
2019-04-07T05:08:17.884Z,6.90
2019-04-07T05:09:24.466Z,7.00
2019-04-07T05:10:31.175Z,7.00
2019-04-07T05:11:37.586Z,7.00
2019-04-07T05:12:44.570Z,7.00
2019-04-07T05:13:50.915Z,7.00
2019-04-07T05:14:57.354Z,7.00
2019-04-07T05:16:03.761Z,7.00
2019-04-07T05:17:10.162Z,7.00
2019-04-07T05:18:16.603Z,6.90
2019-04-07T05:19:23.690Z,7.00
2019-04-07T05:20:30.035Z,7.00
2019-04-07T05:21:36.611Z,7.10
2019-04-07T05:22:43.342Z,7.10
2019-04-07T05:23:50.173Z,7.10
2019-04-07T05:24:56.802Z,7.10
